createdAt,value
2022-08-14T00:03:36.953Z,99.90
2022-08-14T00:06:31.004Z,99.90
2022-08-14T00:13:29.073Z,99.90
2022-08-14T00:19:06.938Z,99.90
2022-08-14T00:22:22.133Z,99.90
2022-08-14T00:25:10.787Z,99.90
2022-08-14T00:28:08.121Z,99.90
2022-08-14T00:30:42.833Z,99.90
2022-08-14T00:34:37.687Z,99.90
2022-08-14T00:44:52.622Z,99.90
2022-08-14T00:55:31.929Z,99.90
2022-08-14T00:58:55.678Z,99.90
2022-08-14T01:01:29.714Z,99.90
2022-08-14T01:07:38.938Z,99.90
2022-08-14T01:10:21.746Z,99.90
2022-08-14T01:12:50.677Z,99.90
2022-08-14T01:16:05.724Z,99.90
2022-08-14T01:19:20.549Z,99.90
2022-08-14T01:21:53.535Z,99.90
2022-08-14T01:24:28.910Z,99.90
2022-08-14T01:27:00.204Z,99.90
2022-08-14T01:29:59.468Z,99.90
2022-08-14T01:32:30.077Z,99.90
2022-08-14T01:35:18.446Z,99.90
2022-08-14T01:38:15.255Z,99.90
2022-08-14T01:46:24.554Z,99.90
2022-08-14T01:48:03.935Z,99.90
2022-08-14T01:54:58.486Z,99.90
2022-08-14T01:57:26.657Z,99.90
2022-08-14T02:00:19.090Z,99.90
2022-08-14T02:03:40.195Z,99.90
2022-08-14T02:06:33.823Z,99.90
2022-08-14T02:09:09.175Z,99.90
2022-08-14T02:11:54.370Z,99.90
2022-08-14T02:14:30.953Z,99.90
2022-08-14T02:17:01.056Z,99.90
2022-08-14T02:19:39.409Z,99.90
2022-08-14T02:22:29.159Z,99.90
2022-08-14T02:25:01.676Z,99.90
2022-08-14T02:28:25.368Z,99.90
2022-08-14T02:30:41.495Z,99.90
2022-08-14T02:33:10.771Z,99.90
2022-08-14T02:37:03.452Z,99.90
2022-08-14T02:43:14.144Z,99.90
2022-08-14T02:45:47.726Z,99.90
2022-08-14T02:49:04.972Z,99.90
2022-08-14T02:51:40.057Z,99.90
2022-08-14T02:57:40.425Z,99.90
2022-08-14T03:00:28.113Z,99.90
2022-08-14T03:02:59.416Z,99.90
2022-08-14T03:05:35.929Z,99.90
2022-08-14T03:08:08.894Z,99.90
2022-08-14T03:11:34.524Z,99.90
2022-08-14T03:14:03.186Z,99.90
2022-08-14T03:16:35.920Z,99.90
2022-08-14T03:19:08.655Z,99.90
2022-08-14T03:21:46.604Z,99.90
2022-08-14T03:28:36.814Z,99.90
2022-08-14T03:31:13.084Z,99.90
2022-08-14T03:33:42.033Z,99.90
2022-08-14T03:37:37.591Z,99.90
2022-08-14T03:39:41.551Z,99.90
2022-08-14T03:53:46.522Z,99.90
2022-08-14T03:56:17.927Z,99.90
2022-08-14T03:59:55.948Z,99.90
2022-08-14T04:06:47.632Z,99.90
2022-08-14T04:10:14.410Z,99.90
2022-08-14T04:22:44.093Z,99.90
2022-08-14T04:25:12.428Z,99.90
2022-08-14T04:28:05.764Z,99.90
2022-08-14T04:30:44.427Z,99.90
2022-08-14T04:44:41.980Z,99.90
2022-08-14T04:47:34.729Z,99.90
2022-08-14T04:50:06.184Z,99.90
2022-08-14T04:52:34.660Z,99.90
2022-08-14T04:55:08.468Z,99.90
2022-08-14T04:57:35.889Z,99.90
2022-08-14T05:00:05.889Z,99.90
2022-08-14T05:02:59.367Z,99.90
2022-08-14T05:05:26.688Z,99.90
2022-08-14T05:08:32.111Z,99.90
2022-08-14T05:11:13.277Z,99.90
2022-08-14T05:14:16.669Z,99.90
2022-08-14T05:17:31.983Z,99.90
2022-08-14T05:21:10.915Z,99.90
2022-08-14T05:23:26.757Z,99.90
2022-08-14T05:26:03.826Z,99.90
2022-08-14T05:33:39.083Z,99.90
2022-08-14T05:36:16.979Z,99.90
2022-08-14T05:38:47.354Z,99.90
2022-08-14T05:41:19.099Z,99.90
2022-08-14T05:43:56.997Z,99.90
2022-08-14T05:46:29.794Z,99.90
2022-08-14T05:49:51.516Z,99.90
2022-08-14T05:52:26.329Z,99.90
2022-08-14T05:55:30.868Z,99.90
2022-08-14T05:58:01.584Z,99.90
2022-08-14T06:00:46.772Z,99.90
2022-08-14T06:03:19.149Z,99.90
2022-08-14T06:05:47.947Z,99.90
2022-08-14T06:08:36.701Z,99.90
2022-08-14T06:11:09.531Z,99.90
2022-08-14T06:13:45.276Z,99.90
2022-08-14T06:16:17.513Z,99.90
2022-08-14T06:18:52.966Z,99.90
2022-08-14T06:21:24.225Z,99.90
2022-08-14T06:27:47.430Z,99.90
2022-08-14T06:30:42.217Z,99.90
2022-08-14T06:33:18.054Z,99.90
2022-08-14T06:35:47.007Z,99.90
2022-08-14T06:38:17.749Z,99.90
2022-08-14T06:40:46.108Z,99.90
2022-08-14T06:43:15.271Z,99.50
2022-08-14T06:45:54.496Z,98.70
2022-08-14T06:51:12.951Z,98.40
2022-08-14T06:53:40.408Z,97.70
2022-08-14T06:56:07.907Z,98.00
2022-08-14T06:58:35.386Z,96.70
2022-08-14T07:01:26.793Z,97.10
2022-08-14T07:04:23.853Z,96.90
2022-08-14T07:06:54.923Z,95.80
2022-08-14T07:09:24.330Z,95.80
2022-08-14T07:11:52.004Z,95.60
2022-08-14T07:14:19.432Z,95.20
2022-08-14T07:16:46.798Z,94.00
2022-08-14T07:19:17.675Z,92.90
2022-08-14T07:21:48.543Z,91.90
2022-08-14T07:24:21.866Z,92.00
2022-08-14T07:27:18.279Z,92.30
2022-08-14T07:29:52.282Z,92.20
2022-08-14T07:32:22.276Z,92.00
2022-08-14T07:35:01.511Z,91.80
2022-08-14T07:37:28.838Z,91.50
2022-08-14T07:39:56.825Z,91.10
2022-08-14T07:42:24.242Z,91.40
2022-08-14T07:46:01.916Z,90.30
2022-08-14T07:52:52.133Z,90.50
2022-08-14T07:55:21.735Z,89.60
2022-08-14T07:59:03.763Z,88.80
2022-08-14T08:01:39.320Z,88.80
2022-08-14T08:04:24.940Z,87.60
2022-08-14T08:07:03.048Z,88.40
2022-08-14T08:09:45.905Z,87.80
2022-08-14T08:12:15.870Z,86.90
2022-08-14T08:14:56.317Z,85.40
2022-08-14T08:17:35.011Z,85.30
2022-08-14T08:24:21.038Z,84.60
2022-08-14T08:29:33.703Z,83.40
2022-08-14T08:40:42.610Z,84.10
2022-08-14T08:53:10.529Z,78.70
2022-08-14T08:55:45.569Z,77.90
2022-08-14T08:58:20.125Z,79.10
2022-08-14T09:00:55.935Z,79.80
2022-08-14T09:03:27.848Z,80.40
2022-08-14T09:06:32.940Z,79.80
2022-08-14T09:08:53.264Z,80.20
2022-08-14T09:11:27.244Z,80.20
2022-08-14T09:13:55.259Z,81.30
2022-08-14T09:16:28.402Z,83.20
2022-08-14T09:18:55.899Z,81.50
2022-08-14T09:21:24.879Z,82.90
2022-08-14T09:24:29.353Z,82.80
2022-08-14T09:26:49.266Z,82.40
2022-08-14T09:29:54.251Z,82.60
2022-08-14T09:33:14.622Z,80.90
2022-08-14T09:36:18.469Z,79.80
2022-08-14T09:38:53.730Z,81.90
2022-08-14T09:42:21.586Z,81.40
2022-08-14T09:44:49.659Z,82.30
2022-08-14T09:47:18.737Z,79.10
2022-08-14T09:49:53.224Z,78.40
2022-08-14T09:52:32.666Z,78.90
2022-08-14T09:55:03.284Z,79.70
2022-08-14T09:57:31.785Z,78.40
2022-08-14T10:00:12.044Z,77.00
2022-08-14T10:03:06.254Z,74.60
2022-08-14T10:05:39.032Z,74.80
2022-08-14T10:08:26.471Z,74.80
2022-08-14T10:11:03.299Z,75.30
2022-08-14T10:13:42.945Z,76.40
2022-08-14T10:16:21.696Z,74.90
2022-08-14T10:18:52.051Z,75.00
2022-08-14T10:21:19.682Z,75.10
2022-08-14T10:24:02.846Z,74.90
2022-08-14T10:26:33.568Z,75.10
2022-08-14T10:29:54.369Z,75.20
2022-08-14T10:42:57.962Z,75.90
2022-08-14T10:45:35.754Z,76.40
2022-08-14T10:49:56.255Z,77.00
2022-08-14T10:56:56.023Z,78.30
2022-08-14T10:59:30.831Z,76.70
2022-08-14T11:02:03.582Z,78.60
2022-08-14T11:04:31.230Z,78.70
2022-08-14T11:06:59.331Z,79.50
2022-08-14T11:09:31.458Z,79.00
2022-08-14T11:12:34.274Z,78.50
2022-08-14T11:15:08.052Z,78.10
2022-08-14T11:17:36.261Z,79.80
2022-08-14T11:20:07.149Z,79.30
2022-08-14T11:22:52.442Z,78.10
2022-08-14T11:25:44.386Z,78.50
2022-08-14T11:31:41.723Z,78.60
2022-08-14T11:37:22.914Z,77.00
2022-08-14T11:40:04.400Z,76.40
2022-08-14T11:42:58.039Z,75.90
2022-08-14T11:45:34.281Z,76.30
2022-08-14T11:49:03.521Z,76.30
2022-08-14T11:51:30.910Z,75.90
2022-08-14T11:54:10.300Z,76.60
2022-08-14T11:56:43.730Z,75.70
2022-08-14T11:59:26.538Z,76.80
2022-08-14T12:03:00.190Z,75.00
2022-08-14T12:04:59.027Z,75.20
2022-08-14T12:07:26.702Z,74.60
2022-08-14T12:09:58.631Z,75.30
2022-08-14T12:12:35.874Z,76.00
2022-08-14T12:15:07.042Z,75.80
2022-08-14T12:17:53.377Z,76.50
2022-08-14T12:20:34.174Z,77.00
2022-08-14T12:23:05.146Z,76.70
2022-08-14T12:25:35.023Z,75.70
2022-08-14T12:28:27.279Z,76.50
2022-08-14T12:31:20.726Z,75.70
2022-08-14T12:33:59.988Z,76.50
2022-08-14T12:36:32.548Z,75.90
2022-08-14T12:39:05.455Z,75.70
2022-08-14T12:41:38.319Z,75.10
2022-08-14T12:44:13.889Z,76.10
2022-08-14T12:46:43.495Z,75.70
2022-08-14T12:49:17.687Z,75.70
2022-08-14T12:51:59.389Z,74.20
2022-08-14T12:55:06.251Z,76.80
2022-08-14T12:57:53.344Z,74.40
2022-08-14T13:00:24.530Z,74.90
2022-08-14T13:02:56.423Z,75.90
2022-08-14T13:05:30.777Z,77.00
2022-08-14T13:08:00.676Z,74.60
2022-08-14T13:10:46.851Z,76.20
2022-08-14T13:13:20.395Z,76.60
2022-08-14T13:15:56.031Z,75.90
2022-08-14T13:18:27.711Z,76.40
2022-08-14T13:21:01.125Z,76.10
2022-08-14T13:23:36.126Z,77.10
2022-08-14T13:26:04.022Z,74.90
2022-08-14T13:28:39.727Z,74.60
2022-08-14T13:31:30.359Z,75.00
2022-08-14T13:34:00.108Z,76.20
2022-08-14T13:36:54.605Z,77.00
2022-08-14T13:39:37.692Z,75.90
2022-08-14T13:42:31.657Z,75.80
2022-08-14T13:45:04.352Z,75.40
2022-08-14T13:47:33.149Z,75.50
2022-08-14T13:50:04.549Z,75.50
2022-08-14T13:52:52.136Z,74.80
2022-08-14T13:55:28.029Z,75.10
2022-08-14T13:58:30.365Z,74.90
2022-08-14T14:01:11.717Z,75.40
2022-08-14T14:03:42.782Z,74.20
2022-08-14T14:06:25.603Z,73.60
2022-08-14T14:08:59.002Z,73.90
2022-08-14T14:11:29.956Z,75.50
2022-08-14T14:14:01.874Z,74.60
2022-08-14T14:16:36.961Z,74.10
2022-08-14T14:19:09.581Z,74.10
2022-08-14T14:21:52.396Z,74.10
2022-08-14T14:24:23.034Z,74.20
2022-08-14T14:27:41.225Z,73.80
2022-08-14T14:30:53.520Z,72.40
2022-08-14T14:33:42.234Z,73.20
2022-08-14T14:36:02.713Z,73.50
2022-08-14T14:38:34.142Z,72.30
2022-08-14T14:41:03.708Z,71.30
2022-08-14T14:43:36.050Z,72.10
2022-08-14T14:46:09.457Z,72.60
2022-08-14T14:48:44.295Z,71.20
2022-08-14T14:51:51.032Z,71.40
2022-08-14T14:54:31.241Z,70.80
2022-08-14T14:57:35.277Z,72.20
2022-08-14T15:00:19.485Z,72.40
2022-08-14T15:02:53.250Z,71.50
2022-08-14T15:05:28.196Z,70.80
2022-08-14T15:07:57.832Z,71.30
2022-08-14T15:10:35.405Z,70.30
2022-08-14T15:13:07.208Z,70.60
2022-08-14T15:15:37.814Z,71.20
2022-08-14T15:18:14.926Z,70.70
2022-08-14T15:25:23.481Z,69.00
2022-08-14T15:27:54.431Z,69.30
2022-08-14T15:30:57.744Z,69.40
2022-08-14T15:34:33.881Z,69.60
2022-08-14T15:36:35.279Z,70.30
2022-08-14T15:39:03.495Z,69.40
2022-08-14T15:41:33.911Z,69.60
2022-08-14T15:44:24.659Z,69.90
2022-08-14T15:46:55.585Z,69.60
2022-08-14T15:49:25.502Z,70.20
2022-08-14T15:52:04.701Z,69.80
2022-08-14T15:54:33.851Z,69.60
2022-08-14T15:57:08.491Z,70.00
2022-08-14T15:59:56.236Z,70.90
2022-08-14T16:02:27.507Z,71.50
2022-08-14T16:04:56.004Z,70.50
2022-08-14T16:07:32.674Z,71.10
2022-08-14T16:10:27.901Z,70.90
2022-08-14T16:12:50.483Z,70.90
2022-08-14T16:15:45.451Z,71.50
2022-08-14T16:18:21.769Z,71.60
2022-08-14T16:20:56.808Z,71.50
2022-08-14T16:23:27.830Z,72.60
2022-08-14T16:26:35.067Z,73.00
2022-08-14T16:29:04.846Z,73.50
2022-08-14T16:31:35.786Z,73.00
2022-08-14T16:34:46.736Z,72.50
2022-08-14T16:37:05.620Z,74.20
2022-08-14T16:39:36.940Z,73.00
2022-08-14T16:42:10.369Z,73.50
2022-08-14T16:44:52.379Z,73.70
2022-08-14T16:47:22.586Z,75.80
2022-08-14T16:50:04.854Z,74.80
2022-08-14T16:52:44.771Z,74.70
2022-08-14T16:55:30.440Z,75.30
2022-08-14T16:58:00.329Z,76.00
2022-08-14T17:00:43.091Z,75.30
2022-08-14T17:03:57.911Z,76.50
2022-08-14T17:07:10.634Z,76.40
2022-08-14T17:10:27.915Z,75.00
2022-08-14T17:13:27.396Z,75.60
2022-08-14T17:16:23.920Z,76.50
2022-08-14T17:19:00.881Z,76.30
2022-08-14T17:21:37.288Z,79.10
2022-08-14T17:24:56.401Z,77.70
2022-08-14T17:27:00.143Z,76.60
2022-08-14T17:29:44.799Z,76.90
2022-08-14T17:32:29.869Z,76.90
2022-08-14T17:35:11.253Z,78.10
2022-08-14T17:37:44.925Z,78.40
2022-08-14T17:40:37.967Z,77.70
2022-08-14T17:43:07.843Z,80.40
2022-08-14T17:45:41.057Z,79.50
2022-08-14T17:49:15.515Z,78.40
2022-08-14T17:51:24.110Z,79.10
2022-08-14T17:54:03.101Z,81.00
2022-08-14T17:56:33.845Z,80.80
2022-08-14T17:59:03.960Z,81.70
2022-08-14T18:04:32.299Z,80.90
2022-08-14T18:07:16.249Z,81.00
2022-08-14T18:09:56.693Z,81.10
2022-08-14T18:12:32.848Z,81.00
2022-08-14T18:15:14.765Z,80.90
2022-08-14T18:18:06.699Z,81.30
2022-08-14T18:21:23.865Z,81.30
2022-08-14T18:23:24.945Z,81.50
2022-08-14T18:25:56.157Z,81.60
2022-08-14T18:28:51.739Z,81.80
2022-08-14T18:31:22.729Z,82.10
2022-08-14T18:33:54.782Z,81.70
2022-08-14T18:36:48.059Z,82.10
2022-08-14T18:39:24.865Z,82.30
2022-08-14T18:42:23.578Z,82.80
2022-08-14T18:44:54.464Z,83.10
2022-08-14T18:47:25.569Z,83.20
2022-08-14T18:49:53.059Z,83.20
2022-08-14T18:52:23.259Z,83.30
2022-08-14T18:54:59.075Z,83.10
2022-08-14T18:57:40.403Z,83.60
2022-08-14T19:00:39.843Z,83.80
2022-08-14T19:03:09.310Z,84.00
2022-08-14T19:05:47.888Z,84.60
2022-08-14T19:08:22.125Z,84.60
2022-08-14T19:11:01.880Z,85.10
2022-08-14T19:13:48.074Z,85.10
2022-08-14T19:16:26.255Z,85.20
2022-08-14T19:19:00.210Z,85.60
2022-08-14T19:21:51.712Z,85.40
2022-08-14T19:24:45.313Z,85.50
2022-08-14T19:27:23.997Z,85.70
2022-08-14T19:30:20.226Z,85.90
2022-08-14T19:32:53.976Z,86.00
2022-08-14T19:35:49.112Z,86.40
2022-08-14T19:38:48.027Z,87.50
2022-08-14T19:41:29.196Z,87.60
2022-08-14T19:44:13.645Z,88.10
2022-08-14T19:47:04.940Z,87.70
2022-08-14T19:50:30.179Z,89.10
2022-08-14T19:52:39.578Z,88.80
2022-08-14T19:55:18.264Z,89.10
2022-08-14T19:57:52.006Z,88.90
2022-08-14T20:00:27.951Z,87.00
2022-08-14T20:03:12.111Z,88.10
2022-08-14T20:05:46.005Z,89.50
2022-08-14T20:11:01.511Z,88.40
2022-08-14T20:12:00.697Z,88.20
2022-08-14T20:14:20.319Z,88.70
2022-08-14T20:16:55.804Z,88.70
2022-08-14T20:19:28.583Z,88.00
2022-08-14T20:22:34.788Z,88.20
2022-08-14T20:24:53.965Z,88.80
2022-08-14T20:27:33.746Z,88.70
2022-08-14T20:30:33.528Z,89.80
2022-08-14T20:33:07.861Z,89.30
2022-08-14T20:35:38.571Z,88.50
2022-08-14T20:38:29.517Z,89.50
2022-08-14T20:41:06.794Z,89.70
2022-08-14T20:43:58.570Z,88.90
2022-08-14T20:46:31.172Z,89.50
2022-08-14T20:49:03.518Z,90.00
2022-08-14T20:51:47.462Z,90.20
2022-08-14T20:54:34.544Z,90.40
2022-08-14T20:57:17.622Z,90.50
2022-08-14T20:59:52.022Z,90.50
2022-08-14T21:02:38.323Z,90.30
2022-08-14T21:05:17.137Z,90.30
2022-08-14T21:07:50.200Z,90.30
2022-08-14T21:10:35.722Z,90.20
2022-08-14T21:14:08.850Z,90.30
2022-08-14T21:16:34.486Z,90.40
2022-08-14T21:18:58.397Z,90.40
2022-08-14T21:21:40.482Z,90.30
2022-08-14T21:24:39.374Z,90.30
2022-08-14T21:27:12.908Z,90.30
2022-08-14T21:29:55.949Z,90.40
2022-08-14T21:32:50.191Z,90.50
2022-08-14T21:35:29.428Z,90.70
2022-08-14T21:38:05.397Z,90.70
2022-08-14T21:40:41.498Z,90.70
2022-08-14T21:43:18.316Z,90.20
2022-08-14T21:45:58.994Z,90.30
2022-08-14T21:48:32.551Z,90.30
2022-08-14T21:51:53.896Z,90.60
2022-08-14T21:54:00.204Z,90.70
2022-08-14T21:56:38.496Z,90.80
2022-08-14T21:59:17.674Z,90.90
2022-08-14T22:02:00.802Z,91.10
2022-08-14T22:04:34.455Z,91.30
2022-08-14T22:07:11.039Z,91.60
2022-08-14T22:09:43.059Z,91.50
2022-08-14T22:12:47.176Z,91.80
2022-08-14T22:15:01.830Z,91.60
2022-08-14T22:17:34.211Z,91.40
2022-08-14T22:20:05.118Z,91.30
2022-08-14T22:22:32.601Z,91.30
2022-08-14T22:25:00.907Z,91.50
2022-08-14T22:27:32.878Z,91.60
2022-08-14T22:30:03.025Z,91.80
2022-08-14T22:32:56.093Z,91.80
2022-08-14T22:35:18.456Z,92.00
2022-08-14T22:38:33.672Z,92.30
2022-08-14T22:41:00.355Z,92.40
2022-08-14T22:43:31.455Z,92.50
2022-08-14T22:46:02.479Z,92.40
2022-08-14T22:48:29.952Z,92.40
2022-08-14T22:50:57.253Z,92.40
2022-08-14T22:53:29.490Z,92.50
2022-08-14T22:55:58.706Z,92.70
2022-08-14T22:58:30.317Z,92.50
2022-08-14T23:01:01.001Z,92.70
2022-08-14T23:03:34.188Z,92.80
2022-08-14T23:06:03.116Z,92.90
2022-08-14T23:09:01.362Z,92.80
2022-08-14T23:11:37.976Z,92.60
2022-08-14T23:14:06.956Z,92.80
2022-08-14T23:16:40.361Z,92.90
2022-08-14T23:19:11.120Z,93.10
2022-08-14T23:21:39.665Z,93.10
2022-08-14T23:24:17.121Z,93.30
2022-08-14T23:26:55.415Z,93.50
2022-08-14T23:29:22.828Z,93.20
2022-08-14T23:31:50.711Z,93.30
2022-08-14T23:34:21.290Z,93.50
2022-08-14T23:36:55.454Z,93.40
2022-08-14T23:39:32.424Z,93.10
2022-08-14T23:42:08.737Z,93.40
2022-08-14T23:44:38.097Z,93.80
2022-08-14T23:47:10.964Z,94.00
2022-08-14T23:50:01.068Z,93.90
2022-08-14T23:52:51.128Z,93.60
2022-08-14T23:55:28.264Z,93.80
2022-08-14T23:57:58.068Z,94.00
